Time;durP1;ratioP1;P1;durP2;ratioP2;P2;SDS_P1;SDS_P2;PMS_P1;PMS_P2;Temp;Humidity;BMP_temperature;BMP_pressure;BME280_temperature;BME280_humidity;BME280_pressure;Samples;Min_cycle;Max_cycle;Signal;HPM_P1;HPM_P2
2022/04/25 00:01:29;;;;;;;4.22;2.70;;;7.90;99.90;;;;;;4973783;28;20463;-78
2022/04/25 00:03:56;;;;;;;5.47;2.67;;;7.90;99.90;;;;;;4974420;28;20385;-78
2022/04/25 00:06:24;;;;;;;5.38;3.03;;;7.90;99.90;;;;;;4974655;28;20110;-78
2022/04/25 00:08:51;;;;;;;3.63;3.33;;;7.90;99.90;;;;;;4956871;28;20536;-78
2022/04/25 00:11:19;;;;;;;3.42;3.13;;;7.90;99.90;;;;;;4973094;28;20142;-77
2022/04/25 00:13:47;;;;;;;2.97;2.78;;;7.80;99.90;;;;;;4972039;28;20054;-77
2022/04/25 00:16:15;;;;;;;3.53;2.60;;;7.90;99.90;;;;;;4973151;28;20086;-77
2022/04/25 00:18:44;;;;;;;2.95;2.45;;;7.90;99.90;;;;;;4972488;28;20453;-79
2022/04/25 00:21:11;;;;;;;4.38;3.05;;;7.90;99.90;;;;;;4974125;28;20046;-77
2022/04/25 00:23:38;;;;;;;5.28;2.45;;;7.90;99.90;;;;;;4971416;28;20585;-77
2022/04/25 00:26:06;;;;;;;3.55;2.45;;;7.90;99.90;;;;;;4971954;28;20189;-78
2022/04/25 00:28:33;;;;;;;2.75;2.45;;;7.90;99.90;;;;;;4958741;28;20055;-78
2022/04/25 00:31:01;;;;;;;3.00;2.70;;;7.90;99.90;;;;;;4972716;28;20065;-78
2022/04/25 00:33:29;;;;;;;2.58;2.15;;;7.80;99.90;;;;;;4974125;28;20459;-77
2022/04/25 00:35:58;;;;;;;3.40;2.90;;;7.80;99.90;;;;;;4956297;28;20086;-77
2022/04/25 00:38:25;;;;;;;3.35;2.40;;;7.80;99.90;;;;;;4972274;28;20054;-77
2022/04/25 00:40:53;;;;;;;4.63;2.55;;;7.80;99.90;;;;;;4988708;28;20051;-77
2022/04/25 00:43:20;;;;;;;22.50;16.38;;;7.70;99.90;;;;;;4956577;28;20046;-77
2022/04/25 00:45:48;;;;;;;2.85;2.35;;;7.80;99.90;;;;;;4972348;28;20061;-77
2022/04/25 00:48:15;;;;;;;5.22;2.75;;;7.80;99.90;;;;;;4973734;28;20089;-78
2022/04/25 00:50:45;;;;;;;2.95;2.40;;;7.80;99.90;;;;;;4973551;28;20078;-77
2022/04/25 00:53:13;;;;;;;3.63;2.50;;;7.80;99.90;;;;;;4973031;28;20376;-78
2022/04/25 00:55:42;;;;;;;3.53;2.53;;;7.70;99.90;;;;;;4972352;28;20058;-77
2022/04/25 00:58:11;;;;;;;3.40;2.70;;;7.70;99.90;;;;;;4973578;28;20574;-77
2022/04/25 01:00:38;;;;;;;3.17;2.70;;;7.70;99.90;;;;;;4972005;28;20057;-77
2022/04/25 01:03:06;;;;;;;3.67;3.22;;;7.80;99.90;;;;;;4973368;28;20051;-78
2022/04/25 01:05:34;;;;;;;6.95;2.63;;;7.80;99.90;;;;;;4972517;28;20550;-77
2022/04/25 01:08:01;;;;;;;3.60;2.90;;;7.70;99.90;;;;;;4973583;28;20054;-78
2022/04/25 01:10:30;;;;;;;4.43;3.05;;;7.70;99.90;;;;;;4973345;28;20084;-77
2022/04/25 01:12:58;;;;;;;4.20;2.83;;;7.70;99.90;;;;;;4970923;28;20043;-77
2022/04/25 01:15:28;;;;;;;3.28;2.90;;;7.70;99.90;;;;;;4973152;28;20526;-77
2022/04/25 01:17:56;;;;;;;3.80;2.90;;;7.70;99.90;;;;;;4972666;28;20070;-77
2022/04/25 01:20:23;;;;;;;4.78;3.35;;;7.70;99.90;;;;;;4973365;28;20138;-77
2022/04/25 01:27:15;;;;;;;4.00;2.67;;;7.70;99.90;;;;;;4971165;28;20546;-77
2022/04/25 01:28:32;;;;;;;4.43;3.05;;;7.60;99.90;;;;;;4952009;28;20055;-78
2022/04/25 01:31:00;;;;;;;4.72;2.95;;;7.60;99.90;;;;;;4954534;28;20039;-77
2022/04/25 01:33:27;;;;;;;2.97;2.53;;;7.60;99.90;;;;;;4987915;28;20062;-78
2022/04/25 01:35:55;;;;;;;3.38;2.95;;;7.60;99.90;;;;;;4972862;28;20047;-77
2022/04/25 01:38:23;;;;;;;3.83;3.25;;;7.60;99.90;;;;;;4971508;28;20050;-77
2022/04/25 01:40:51;;;;;;;4.13;2.80;;;7.60;99.90;;;;;;4977447;28;20412;-77
2022/04/25 01:43:19;;;;;;;4.20;3.42;;;7.60;99.90;;;;;;4968343;28;20407;-77
2022/04/25 01:45:46;;;;;;;3.40;2.97;;;7.60;99.90;;;;;;4971311;28;20050;-78
2022/04/25 01:48:14;;;;;;;3.42;2.63;;;7.60;99.90;;;;;;4971287;28;20062;-78
2022/04/25 01:50:41;;;;;;;3.70;2.67;;;7.60;99.90;;;;;;4969934;28;20053;-77
2022/04/25 01:53:09;;;;;;;3.83;2.90;;;7.60;99.90;;;;;;4971186;28;20050;-77
2022/04/25 01:55:37;;;;;;;3.92;3.25;;;7.60;99.90;;;;;;4970881;28;20057;-77
2022/04/25 01:58:06;;;;;;;3.95;3.03;;;7.60;99.90;;;;;;4970796;28;20062;-77
2022/04/25 02:00:34;;;;;;;5.82;3.47;;;7.60;99.90;;;;;;4972470;28;20134;-77
2022/04/25 02:03:01;;;;;;;4.05;3.03;;;7.60;99.90;;;;;;4972064;28;20499;-77
2022/04/25 02:05:29;;;;;;;3.60;3.05;;;7.60;99.90;;;;;;4972069;28;20090;-77
2022/04/25 02:07:56;;;;;;;4.53;3.63;;;7.60;99.90;;;;;;4969328;28;20447;-78
2022/04/25 02:10:24;;;;;;;4.45;3.80;;;7.60;99.90;;;;;;4970452;28;20081;-78
2022/04/25 02:12:52;;;;;;;4.28;3.30;;;7.60;99.90;;;;;;4970724;28;20050;-78
2022/04/25 02:15:21;;;;;;;3.47;3.17;;;7.60;99.90;;;;;;4970820;28;20145;-78
2022/04/25 02:17:48;;;;;;;3.47;3.15;;;7.60;99.90;;;;;;4971105;28;20058;-78
2022/04/25 02:20:16;;;;;;;3.70;2.80;;;7.60;99.90;;;;;;4970145;28;20129;-78
2022/04/25 02:22:44;;;;;;;4.68;3.50;;;7.60;99.90;;;;;;4972360;28;20105;-78
2022/04/25 02:25:12;;;;;;;3.03;2.80;;;7.60;99.90;;;;;;4971137;28;20053;-78
2022/04/25 02:27:39;;;;;;;6.85;4.00;;;7.60;99.90;;;;;;4971674;28;20062;-78
2022/04/25 02:30:08;;;;;;;3.67;3.10;;;7.60;99.90;;;;;;4970031;28;20305;-77
2022/04/25 02:32:38;;;;;;;4.10;3.70;;;7.60;99.90;;;;;;4971692;28;20071;-78
2022/04/25 02:35:07;;;;;;;4.13;3.10;;;7.60;99.90;;;;;;4953798;28;20523;-78
2022/04/25 02:37:34;;;;;;;4.13;2.95;;;7.60;99.90;;;;;;4971881;28;20531;-77
2022/04/25 02:40:02;;;;;;;3.13;2.80;;;7.60;99.90;;;;;;4970445;28;20051;-77
2022/04/25 02:42:30;;;;;;;4.70;3.70;;;7.60;99.90;;;;;;4970596;28;20078;-77
2022/04/25 02:44:58;;;;;;;2.92;2.70;;;7.60;99.90;;;;;;4970025;28;20141;-77
2022/04/25 02:47:25;;;;;;;3.55;3.20;;;7.60;99.90;;;;;;4970537;28;20059;-78
2022/04/25 02:49:54;;;;;;;4.90;3.60;;;7.60;99.90;;;;;;4970675;28;20520;-77
2022/04/25 02:52:21;;;;;;;4.80;3.13;;;7.60;99.90;;;;;;4968033;28;20077;-76
2022/04/25 02:54:49;;;;;;;3.65;3.00;;;7.60;99.90;;;;;;4971974;28;20070;-76
2022/04/25 02:57:16;;;;;;;3.38;2.95;;;7.60;99.90;;;;;;4972300;28;20492;-76
2022/04/25 02:59:44;;;;;;;4.38;3.15;;;7.60;99.90;;;;;;4958291;28;20053;-76
2022/04/25 03:02:12;;;;;;;5.05;3.35;;;7.60;99.90;;;;;;4974521;28;20047;-76
2022/04/25 03:04:39;;;;;;;6.30;3.63;;;7.60;99.90;;;;;;4975553;28;20665;-76
2022/04/25 03:07:08;;;;;;;4.90;3.20;;;7.60;99.90;;;;;;4958190;28;20146;-76
2022/04/25 03:09:36;;;;;;;3.78;3.03;;;7.60;99.90;;;;;;4973497;28;20423;-76
2022/04/25 03:12:04;;;;;;;3.80;3.10;;;7.60;99.90;;;;;;4974116;28;20046;-77
2022/04/25 03:14:32;;;;;;;3.90;3.55;;;7.60;99.90;;;;;;4975700;28;20101;-76
2022/04/25 03:17:00;;;;;;;3.85;3.28;;;7.60;99.90;;;;;;4975425;28;20042;-76
2022/04/25 03:19:27;;;;;;;3.30;3.10;;;7.60;99.90;;;;;;4973733;28;20523;-76
2022/04/25 03:21:55;;;;;;;3.65;3.33;;;7.60;99.90;;;;;;4975166;28;20105;-79
2022/04/25 03:24:24;;;;;;;4.50;3.70;;;7.60;99.90;;;;;;4973899;28;20126;-78
2022/04/25 03:26:52;;;;;;;7.55;3.45;;;7.70;99.90;;;;;;4974920;28;20082;-76
2022/04/25 03:29:19;;;;;;;3.38;2.92;;;7.70;99.90;;;;;;4973990;28;20491;-77
2022/04/25 03:31:47;;;;;;;3.85;3.30;;;7.70;99.90;;;;;;4973830;28;20877;-77
2022/04/25 03:34:14;;;;;;;9.32;6.45;;;7.70;99.90;;;;;;4973778;28;20483;-77
2022/04/25 03:36:44;;;;;;;4.20;3.72;;;7.70;99.90;;;;;;4973497;28;20050;-77
2022/04/25 03:39:11;;;;;;;4.50;3.25;;;7.70;99.90;;;;;;4969595;28;20451;-77
2022/04/25 03:41:40;;;;;;;3.97;3.10;;;7.70;99.90;;;;;;4970463;28;20082;-77
2022/04/25 03:44:08;;;;;;;4.05;3.30;;;7.70;99.90;;;;;;4974856;28;20047;-77
2022/04/25 03:46:35;;;;;;;6.38;3.78;;;7.70;99.90;;;;;;4980426;28;20066;-78
2022/04/25 03:49:03;;;;;;;5.93;3.70;;;7.70;99.90;;;;;;4974912;28;20476;-78
2022/04/25 03:51:31;;;;;;;5.47;3.17;;;7.80;99.90;;;;;;4972070;28;20058;-78
2022/04/25 03:53:58;;;;;;;6.43;4.20;;;7.80;99.90;;;;;;4974128;28;20054;-78
2022/04/25 03:59:14;;;;;;;10.48;3.63;;;7.80;99.90;;;;;;4956781;28;20421;-78
2022/04/25 04:01:42;;;;;;;6.93;4.68;;;7.80;99.90;;;;;;4973199;28;20060;-78
2022/04/25 04:04:09;;;;;;;4.13;3.47;;;7.70;99.90;;;;;;4973169;28;20038;-78
2022/04/25 04:06:37;;;;;;;5.07;3.55;;;7.80;99.90;;;;;;4970221;28;20141;-78
2022/04/25 04:09:44;;;;;;;5.32;3.47;;;7.80;99.90;;;;;;4969647;28;20055;-79
2022/04/25 04:11:53;;;;;;;3.95;3.00;;;7.80;99.90;;;;;;4973333;28;20470;-78
2022/04/25 04:14:21;;;;;;;4.50;3.78;;;7.80;99.90;;;;;;4973534;28;20517;-77
2022/04/25 04:16:49;;;;;;;4.00;3.47;;;7.80;99.90;;;;;;4968796;28;20161;-80
2022/04/25 04:19:20;;;;;;;6.93;3.40;;;7.80;99.90;;;;;;4973750;28;20061;-81
2022/04/25 04:21:48;;;;;;;3.30;3.00;;;7.70;99.90;;;;;;4972481;28;20605;-82
2022/04/25 04:24:15;;;;;;;5.43;4.22;;;7.70;99.90;;;;;;4973027;28;20046;-79
2022/04/25 04:26:43;;;;;;;4.38;3.60;;;7.80;99.90;;;;;;4973531;28;20043;-79
2022/04/25 04:29:10;;;;;;;4.25;3.20;;;7.80;99.90;;;;;;4972617;28;20430;-80
2022/04/25 04:31:39;;;;;;;3.35;3.03;;;7.80;99.90;;;;;;4974481;28;20059;-80
2022/04/25 04:34:07;;;;;;;5.35;3.15;;;7.80;99.90;;;;;;4969359;28;20559;-76
2022/04/25 04:36:34;;;;;;;3.38;3.05;;;7.80;99.90;;;;;;4954771;28;20051;-75
2022/04/25 04:39:02;;;;;;;5.53;3.65;;;7.80;99.90;;;;;;4954763;28;20074;-75
2022/04/25 04:41:29;;;;;;;4.57;3.58;;;7.90;99.90;;;;;;4973855;28;20077;-75
2022/04/25 04:43:57;;;;;;;6.20;4.20;;;7.80;99.90;;;;;;4969993;28;20586;-75
2022/04/25 04:46:25;;;;;;;5.90;3.78;;;7.90;99.90;;;;;;4973718;28;20047;-75
2022/04/25 04:48:54;;;;;;;4.63;3.67;;;7.90;99.90;;;;;;4973204;28;20146;-76
2022/04/25 04:51:22;;;;;;;5.47;3.75;;;7.90;99.90;;;;;;4966994;28;20139;-76
2022/04/25 04:53:49;;;;;;;7.93;4.55;;;8.00;99.90;;;;;;4988777;28;20085;-76
2022/04/25 04:56:17;;;;;;;6.20;3.70;;;8.00;99.90;;;;;;4972082;28;20055;-76
2022/04/25 04:58:46;;;;;;;4.32;3.75;;;8.10;99.90;;;;;;4973125;28;20142;-77
2022/04/25 05:01:14;;;;;;;4.55;3.20;;;8.00;99.90;;;;;;4971659;28;20427;-76
2022/04/25 05:03:41;;;;;;;4.88;3.50;;;8.00;99.90;;;;;;4973547;28;20047;-76
2022/04/25 05:06:11;;;;;;;5.18;3.42;;;8.00;99.90;;;;;;4973197;28;20110;-75
2022/04/25 05:08:39;;;;;;;4.18;3.78;;;7.90;99.90;;;;;;4954500;28;20046;-76
2022/04/25 05:11:08;;;;;;;5.50;3.63;;;7.90;99.90;;;;;;4972809;28;20145;-78
2022/04/25 05:13:36;;;;;;;5.80;3.78;;;7.90;99.90;;;;;;4972757;28;20059;-76
2022/04/25 05:16:04;;;;;;;8.85;4.43;;;7.80;99.90;;;;;;4972075;28;20097;-77
2022/04/25 05:18:33;;;;;;;8.15;4.70;;;7.90;99.90;;;;;;4972107;28;20049;-76
2022/04/25 05:21:01;;;;;;;7.28;4.43;;;7.90;99.90;;;;;;4971505;28;20078;-76
2022/04/25 05:23:33;;;;;;;5.00;4.38;;;7.90;99.90;;;;;;4971156;28;20415;-76
2022/04/25 05:26:03;;;;;;;5.38;3.83;;;8.00;99.90;;;;;;4972176;28;20059;-77
2022/04/25 05:28:32;;;;;;;4.35;3.92;;;8.00;99.90;;;;;;4952323;28;20051;-77
2022/04/25 05:30:59;;;;;;;6.07;3.70;;;8.00;99.90;;;;;;4966612;28;20062;-76
2022/04/25 05:33:27;;;;;;;5.80;4.35;;;8.10;99.90;;;;;;4971353;28;20058;-77
2022/04/25 05:35:54;;;;;;;6.38;4.80;;;8.10;99.90;;;;;;4967699;28;20042;-77
2022/04/25 05:38:21;;;;;;;6.72;4.45;;;8.10;99.90;;;;;;4966675;28;20278;-78
2022/04/25 05:40:52;;;;;;;7.60;4.07;;;8.10;99.90;;;;;;4968060;28;20130;-76
2022/04/25 05:43:19;;;;;;;4.70;3.88;;;8.20;99.90;;;;;;4967943;28;20104;-76
2022/04/25 05:45:50;;;;;;;6.85;3.95;;;8.10;99.90;;;;;;4968780;28;20055;-77
2022/04/25 05:53:55;;;;;;;4.35;3.95;;;8.10;99.90;;;;;;4965533;28;20101;-76
2022/04/25 05:56:27;;;;;;;5.28;3.78;;;8.10;99.90;;;;;;4968232;28;20045;-77
2022/04/25 05:58:57;;;;;;;5.50;3.78;;;8.10;99.90;;;;;;4972664;28;20109;-77
2022/04/25 06:01:27;;;;;;;4.28;3.28;;;8.10;99.90;;;;;;4972427;28;20113;-79
2022/04/25 06:03:57;;;;;;;6.13;3.75;;;8.10;99.90;;;;;;4962048;28;20267;-77
2022/04/25 06:06:26;;;;;;;8.52;3.85;;;8.10;99.90;;;;;;4962874;28;20047;-76
2022/04/25 06:08:56;;;;;;;3.80;3.50;;;8.10;99.90;;;;;;4971468;28;20054;-76
2022/04/25 06:11:28;;;;;;;3.17;2.70;;;8.20;99.90;;;;;;4961102;28;20057;-77
2022/04/25 06:13:57;;;;;;;4.13;3.72;;;8.10;99.90;;;;;;4987590;28;20054;-77
2022/04/25 06:16:25;;;;;;;4.38;3.05;;;8.20;99.90;;;;;;4980786;28;20043;-77
2022/04/25 06:18:54;;;;;;;9.73;3.65;;;8.20;99.90;;;;;;4984406;28;20540;-77
2022/04/25 06:21:21;;;;;;;3.78;3.15;;;8.10;99.90;;;;;;4983912;28;20113;-77
2022/04/25 06:23:51;;;;;;;5.97;3.55;;;8.10;99.90;;;;;;4973295;28;20608;-77
2022/04/25 06:26:18;;;;;;;8.25;3.53;;;8.20;99.90;;;;;;4981309;28;20046;-76
2022/04/25 06:28:47;;;;;;;7.32;3.08;;;8.20;99.90;;;;;;4977430;28;20046;-77
2022/04/25 06:31:14;;;;;;;4.80;2.80;;;8.20;99.90;;;;;;4982969;28;20046;-76
2022/04/25 06:33:42;;;;;;;4.63;3.20;;;8.20;99.90;;;;;;4974659;28;20154;-77
2022/04/25 06:36:11;;;;;;;9.50;3.85;;;8.20;99.90;;;;;;4973408;28;20446;-77
2022/04/25 06:38:38;;;;;;;5.45;3.42;;;8.30;99.90;;;;;;4975714;28;20049;-76
2022/04/25 06:41:07;;;;;;;3.95;3.30;;;8.40;99.90;;;;;;4978107;28;20092;-76
2022/04/25 06:43:36;;;;;;;5.25;3.10;;;8.40;99.90;;;;;;4985264;28;20042;-75
2022/04/25 06:46:05;;;;;;;5.07;3.60;;;8.50;99.90;;;;;;4989432;28;20149;-76
2022/04/25 06:48:34;;;;;;;6.32;3.95;;;8.50;99.90;;;;;;4989299;28;20445;-75
2022/04/25 06:51:01;;;;;;;6.05;4.03;;;8.60;99.90;;;;;;4971909;28;20050;-76
2022/04/25 06:53:28;;;;;;;5.30;4.00;;;8.60;99.90;;;;;;4969752;28;20057;-76
2022/04/25 06:55:56;;;;;;;4.22;3.85;;;8.60;99.90;;;;;;4968864;28;20042;-75
2022/04/25 06:58:26;;;;;;;5.47;4.00;;;8.70;99.90;;;;;;4982355;28;20075;-76
2022/04/25 07:00:54;;;;;;;5.82;4.57;;;8.70;99.90;;;;;;4967655;28;20051;-76
2022/04/25 07:03:25;;;;;;;4.47;3.75;;;8.70;99.90;;;;;;4969177;28;20122;-76
2022/04/25 07:05:54;;;;;;;3.75;3.42;;;8.80;99.90;;;;;;4967814;28;20050;-77
2022/04/25 07:08:21;;;;;;;4.80;3.72;;;8.80;99.90;;;;;;4964689;28;20047;-75
2022/04/25 07:10:49;;;;;;;6.28;3.60;;;8.90;99.90;;;;;;4951408;28;20066;-76
2022/04/25 07:13:18;;;;;;;4.13;3.47;;;9.00;99.90;;;;;;4967461;28;20074;-75
2022/04/25 07:15:50;;;;;;;4.72;3.83;;;9.10;99.90;;;;;;4969930;28;20423;-76
2022/04/25 07:18:18;;;;;;;4.55;4.07;;;9.20;99.90;;;;;;4971028;28;20078;-76
2022/04/25 07:20:47;;;;;;;4.13;3.08;;;9.20;99.90;;;;;;4971091;28;20046;-76
2022/04/25 07:28:57;;;;;;;6.05;3.67;;;9.20;99.90;;;;;;4971254;28;20126;-78
2022/04/25 07:31:25;;;;;;;6.95;4.43;;;9.20;99.90;;;;;;4970155;28;20086;-76
2022/04/25 07:33:56;;;;;;;3.20;2.90;;;9.20;99.90;;;;;;4984845;28;20049;-77
2022/04/25 07:36:26;;;;;;;4.93;3.25;;;9.20;99.90;;;;;;4990383;28;20049;-79
2022/04/25 07:38:55;;;;;;;3.88;2.80;;;9.10;99.90;;;;;;4991065;28;20053;-77
2022/04/25 07:41:27;;;;;;;3.10;2.30;;;9.00;99.90;;;;;;4990846;28;20046;-76
2022/04/25 07:43:55;;;;;;;3.78;2.63;;;9.00;99.90;;;;;;4982399;28;20054;-80
2022/04/25 07:46:25;;;;;;;3.90;2.78;;;9.00;99.90;;;;;;4976510;28;20050;-76
2022/04/25 07:48:53;;;;;;;5.18;3.30;;;9.00;99.90;;;;;;4991688;28;20411;-76
2022/04/25 07:51:20;;;;;;;2.90;2.10;;;9.00;99.90;;;;;;4992521;28;20084;-76
2022/04/25 07:53:49;;;;;;;5.30;2.45;;;9.00;99.90;;;;;;4993981;28;20042;-74
2022/04/25 07:56:16;;;;;;;5.97;2.10;;;9.00;99.90;;;;;;4993817;28;20050;-75
2022/04/25 07:58:43;;;;;;;2.72;1.80;;;9.00;99.90;;;;;;4990886;28;20072;-74
2022/04/25 08:01:11;;;;;;;1.70;1.60;;;8.90;99.90;;;;;;4992779;28;20049;-73
2022/04/25 08:03:38;;;;;;;2.97;1.50;;;8.90;99.90;;;;;;4991000;28;20546;-75
2022/04/25 08:06:06;;;;;;;2.15;1.23;;;8.80;99.90;;;;;;4993561;28;20080;-75
2022/04/25 08:08:33;;;;;;;6.82;1.60;;;8.80;99.90;;;;;;4990696;28;20046;-75
2022/04/25 08:11:02;;;;;;;2.47;1.30;;;8.80;99.90;;;;;;4991858;28;20495;-74
2022/04/25 08:19:13;;;;;;;2.05;1.40;;;8.60;99.90;;;;;;4988538;28;20509;-74
2022/04/25 08:21:40;;;;;;;1.58;1.23;;;8.60;99.90;;;;;;4992090;28;20078;-73
2022/04/25 08:24:08;;;;;;;1.90;1.20;;;8.60;99.90;;;;;;4972615;28;20511;-74
2022/04/25 08:26:37;;;;;;;0.95;0.95;;;8.60;99.90;;;;;;4986933;28;20054;-75
2022/04/25 08:29:05;;;;;;;1.30;1.20;;;8.60;99.90;;;;;;4983035;28;20078;-75
2022/04/25 08:31:34;;;;;;;2.85;1.10;;;8.60;99.90;;;;;;4993116;28;20054;-73
2022/04/25 08:34:03;;;;;;;1.38;1.25;;;8.60;99.90;;;;;;4991283;28;20172;-73
2022/04/25 08:36:31;;;;;;;2.80;1.40;;;8.50;99.90;;;;;;4992961;28;20046;-73
2022/04/25 08:39:00;;;;;;;2.05;1.38;;;8.50;99.90;;;;;;4992820;28;20113;-74
2022/04/25 08:41:31;;;;;;;1.45;1.20;;;8.50;99.90;;;;;;4972133;28;20046;-74
2022/04/25 08:44:00;;;;;;;1.55;1.40;;;8.50;99.90;;;;;;4982311;28;20141;-72
2022/04/25 08:46:31;;;;;;;1.60;1.40;;;8.50;99.90;;;;;;5007671;28;20081;-73
2022/04/25 08:49:03;;;;;;;2.25;1.50;;;8.60;99.90;;;;;;4993137;28;20061;-73
2022/04/25 08:51:32;;;;;;;1.63;1.52;;;8.60;99.90;;;;;;4991235;28;20085;-72
2022/04/25 08:54:01;;;;;;;1.38;1.25;;;8.70;99.90;;;;;;4990187;28;20050;-72
2022/04/25 08:56:29;;;;;;;2.13;1.52;;;8.70;99.90;;;;;;4991417;28;20080;-72
2022/04/25 08:58:59;;;;;;;4.82;2.15;;;8.70;99.90;;;;;;4992638;28;20146;-72
2022/04/25 09:01:26;;;;;;;2.35;1.38;;;8.70;99.90;;;;;;4990968;28;20043;-73
2022/04/25 09:03:54;;;;;;;1.35;1.25;;;8.60;99.90;;;;;;4992727;28;20050;-72
2022/04/25 09:06:21;;;;;;;3.80;1.92;;;8.60;99.90;;;;;;4991223;28;20541;-72
2022/04/25 09:08:49;;;;;;;1.50;1.40;;;8.60;99.90;;;;;;4992570;28;20054;-72
2022/04/25 09:14:03;;;;;;;2.47;1.20;;;8.70;99.90;;;;;;4992415;28;20137;-71
2022/04/25 09:16:31;;;;;;;2.45;2.00;;;8.70;99.90;;;;;;4991982;28;20105;-73
2022/04/25 09:18:58;;;;;;;2.28;1.83;;;8.70;99.90;;;;;;4990243;28;20156;-72
2022/04/25 09:21:26;;;;;;;2.40;1.70;;;8.70;99.90;;;;;;4990606;28;20597;-72
2022/04/25 09:23:53;;;;;;;2.78;1.88;;;8.70;99.90;;;;;;4987337;28;20137;-72
2022/04/25 09:26:21;;;;;;;2.90;1.77;;;8.80;99.90;;;;;;4986576;28;20046;-72
2022/04/25 09:28:52;;;;;;;2.33;1.60;;;8.80;99.90;;;;;;4990452;28;20593;-72
2022/04/25 09:31:25;;;;;;;3.63;1.70;;;8.80;99.90;;;;;;4989511;28;20062;-72
2022/04/25 09:33:53;;;;;;;2.47;1.83;;;8.80;99.90;;;;;;4990517;28;20058;-73
2022/04/25 09:36:21;;;;;;;2.00;1.30;;;8.80;99.90;;;;;;4987952;28;20054;-72
2022/04/25 09:38:48;;;;;;;2.15;1.50;;;8.80;99.90;;;;;;4987805;28;20415;-72
2022/04/25 09:41:17;;;;;;;3.75;1.83;;;8.80;99.90;;;;;;4983880;28;20046;-73
2022/04/25 09:43:48;;;;;;;1.40;1.30;;;8.70;99.90;;;;;;4990772;28;20050;-72
2022/04/25 09:46:17;;;;;;;2.05;1.85;;;8.70;99.90;;;;;;4990004;28;20046;-74
2022/04/25 09:51:37;;;;;;;2.60;1.60;;;8.70;99.90;;;;;;5163600;27;20365;-74
2022/04/25 09:54:05;;;;;;;2.67;2.03;;;8.70;99.90;;;;;;5127863;27;20040;-72
2022/04/25 09:56:34;;;;;;;1.60;1.50;;;8.60;99.90;;;;;;5127576;27;20051;-72
2022/04/25 09:59:05;;;;;;;2.03;1.75;;;8.60;99.90;;;;;;5127119;27;20514;-73
2022/04/25 10:01:37;;;;;;;4.20;1.95;;;8.60;99.90;;;;;;5125047;27;20066;-72
2022/04/25 10:04:06;;;;;;;2.25;2.15;;;8.60;99.90;;;;;;5114875;27;20061;-73
2022/04/25 10:06:37;;;;;;;2.28;1.90;;;8.60;99.90;;;;;;5110663;28;20170;-72
2022/04/25 10:09:06;;;;;;;3.25;1.60;;;8.70;99.90;;;;;;5111711;28;20054;-73
2022/04/25 10:11:37;;;;;;;2.65;1.90;;;8.70;99.90;;;;;;5106741;28;20058;-74
2022/04/25 10:14:05;;;;;;;3.08;1.65;;;8.70;99.90;;;;;;5108331;27;20043;-73
2022/04/25 10:16:34;;;;;;;15.23;10.13;;;8.70;99.90;;;;;;5116403;27;20089;-72
2022/04/25 10:19:02;;;;;;;2.42;1.92;;;8.70;99.90;;;;;;5109590;27;20074;-73
2022/04/25 10:21:31;;;;;;;3.38;1.70;;;8.70;99.90;;;;;;5114654;27;20050;-72
2022/04/25 10:24:00;;;;;;;2.20;1.85;;;8.70;99.90;;;;;;5118514;28;20082;-73
2022/04/25 10:26:28;;;;;;;2.20;2.08;;;8.70;99.90;;;;;;5119127;27;20042;-73
2022/04/25 10:28:59;;;;;;;3.80;2.15;;;8.70;99.90;;;;;;5147434;27;20058;-73
2022/04/25 10:31:30;;;;;;;2.53;2.20;;;8.80;99.90;;;;;;5148360;27;20055;-73
2022/04/25 10:34:03;;;;;;;4.40;2.30;;;8.80;99.90;;;;;;5122368;27;20463;-74
2022/04/25 10:36:46;;;;;;;2.55;2.35;;;8.80;99.90;;;;;;5116816;27;20110;-74
2022/04/25 10:39:18;;;;;;;2.83;2.50;;;8.70;99.90;;;;;;5124618;27;20051;-74
2022/04/25 10:44:56;;;;;;;2.22;2.10;;;8.70;99.90;;;;;;5124623;28;20051;-74
2022/04/25 10:47:25;;;;;;;3.83;2.47;;;8.80;99.90;;;;;;5106360;28;20408;-74
2022/04/25 10:50:03;;;;;;;2.10;1.90;;;8.70;99.90;;;;;;5106187;28;20052;-75
2022/04/25 10:52:57;;;;;;;2.55;2.35;;;8.70;99.90;;;;;;5107848;27;20052;-74
2022/04/25 10:55:42;;;;;;;2.45;2.30;;;8.80;99.90;;;;;;5106497;28;20048;-75
2022/04/25 10:58:17;;;;;;;2.13;2.03;;;8.80;99.90;;;;;;5103323;27;20087;-76
2022/04/25 11:00:48;;;;;;;2.35;1.63;;;8.90;99.90;;;;;;5114436;28;20075;-76
2022/04/25 11:03:19;;;;;;;2.13;2.03;;;8.90;99.90;;;;;;5107089;28;20047;-76
2022/04/25 11:05:48;;;;;;;2.00;1.73;;;8.80;99.90;;;;;;5091975;28;20054;-76
2022/04/25 11:08:36;;;;;;;2.45;2.30;;;8.80;99.90;;;;;;5072731;28;20055;-76
2022/04/25 11:11:23;;;;;;;4.70;2.25;;;8.80;99.90;;;;;;5098977;27;20395;-75
2022/04/25 11:14:17;;;;;;;1.85;1.75;;;8.80;99.90;;;;;;5094258;28;20071;-74
2022/04/25 11:17:10;;;;;;;2.30;2.15;;;8.80;99.90;;;;;;5124041;27;20062;-75
2022/04/25 11:19:51;;;;;;;;;;;8.80;99.90;;;;;;5108220;27;20603;-75
2022/04/25 11:22:52;;;;;;;3.20;2.90;;;8.70;99.90;;;;;;5105741;28;20030;-76
2022/04/25 11:25:42;;;;;;;4.97;3.72;;;8.70;99.90;;;;;;5092457;28;20059;-76
2022/04/25 11:28:17;;;;;;;5.07;3.28;;;8.80;99.90;;;;;;5099570;28;20048;-77
2022/04/25 11:30:45;;;;;;;4.65;3.47;;;8.70;99.90;;;;;;5103616;27;20182;-76
2022/04/25 11:33:13;;;;;;;4.90;3.42;;;8.70;99.90;;;;;;5103567;27;20451;-76
2022/04/25 11:35:43;;;;;;;3.58;3.15;;;8.60;99.90;;;;;;5093488;28;20044;-76
2022/04/25 11:38:10;;;;;;;4.40;3.83;;;8.50;99.90;;;;;;5091875;28;20044;-76
2022/04/25 11:40:40;;;;;;;4.07;3.65;;;8.50;99.90;;;;;;5093504;28;20436;-76
2022/04/25 11:43:07;;;;;;;5.10;3.83;;;8.40;99.90;;;;;;5097514;28;20139;-76
2022/04/25 11:45:38;;;;;;;3.92;3.47;;;8.50;99.90;;;;;;5104528;28;20040;-76
2022/04/25 11:48:14;;;;;;;5.18;3.70;;;8.50;99.90;;;;;;5096432;28;20048;-74
2022/04/25 11:50:41;;;;;;;7.38;3.78;;;8.60;99.90;;;;;;5090815;28;20093;-74
2022/04/25 11:53:10;;;;;;;4.72;3.50;;;8.60;99.90;;;;;;5105799;28;20043;-76
2022/04/25 11:55:38;;;;;;;4.32;3.75;;;8.50;99.90;;;;;;5109897;28;20507;-75
2022/04/25 11:58:09;;;;;;;6.25;4.57;;;8.50;99.90;;;;;;5111854;28;20055;-75
2022/04/25 12:00:40;;;;;;;4.55;3.85;;;8.50;99.90;;;;;;5097118;28;20044;-75
2022/04/25 12:03:24;;;;;;;3.97;3.60;;;8.40;99.90;;;;;;5091542;28;20044;-75
2022/04/25 12:05:51;;;;;;;;;;;8.40;99.90;;;;;;5111828;27;20047;-75
2022/04/25 12:16:41;;;;;;;7.30;4.20;;;8.30;99.90;;;;;;5110731;27;20036;-74
2022/04/25 12:19:11;;;;;;;5.07;4.57;;;8.30;99.90;;;;;;5094040;28;20044;-74
2022/04/25 12:21:47;;;;;;;5.72;5.13;;;8.20;99.90;;;;;;5103378;28;20042;-73
2022/04/25 12:24:18;;;;;;;5.35;4.82;;;8.20;99.90;;;;;;5092875;28;20052;-75
2022/04/25 12:26:45;;;;;;;5.80;5.15;;;8.20;99.90;;;;;;5100010;28;20496;-74
2022/04/25 12:29:13;;;;;;;7.28;6.30;;;8.20;99.90;;;;;;5098554;27;20043;-75
2022/04/25 12:31:47;;;;;;;8.32;6.07;;;8.10;99.90;;;;;;5106654;28;21343;-76
2022/04/25 12:34:19;;;;;;;10.80;5.93;;;8.10;99.90;;;;;;5090941;28;20079;-75
2022/04/25 12:36:58;;;;;;;20.25;6.18;;;8.10;99.90;;;;;;5092727;27;20051;-74
2022/04/25 12:39:27;;;;;;;9.10;5.85;;;8.10;99.90;;;;;;5100847;28;20131;-77
2022/04/25 12:41:57;;;;;;;11.57;5.22;;;8.10;99.90;;;;;;5108345;28;20044;-81
2022/04/25 12:44:26;;;;;;;11.02;5.30;;;8.10;99.90;;;;;;5095881;28;20043;-81
2022/04/25 12:47:03;;;;;;;5.40;4.82;;;8.10;99.90;;;;;;5102292;28;20042;-79
2022/04/25 12:49:35;;;;;;;7.88;6.13;;;8.10;99.90;;;;;;5121191;27;20407;-77
2022/04/25 12:52:05;;;;;;;5.88;5.13;;;8.10;99.90;;;;;;5095208;27;20047;-78
2022/04/25 12:54:35;;;;;;;16.40;12.13;;;8.10;99.90;;;;;;5091178;28;20079;-80
2022/04/25 12:57:13;;;;;;;6.03;4.97;;;8.10;99.90;;;;;;5094020;27;20093;-78
2022/04/25 12:59:42;;;;;;;6.03;5.22;;;8.10;99.90;;;;;;5099304;28;20048;-80
2022/04/25 13:02:14;;;;;;;6.63;5.05;;;8.10;99.90;;;;;;5098738;28;20069;-77
2022/04/25 13:04:55;;;;;;;;;;;8.10;99.90;;;;;;5105778;27;20044;-76
2022/04/25 13:07:25;;;;;;;7.68;4.70;;;8.00;99.90;;;;;;5106566;27;19924;-77
2022/04/25 13:09:56;;;;;;;6.85;5.13;;;8.00;99.90;;;;;;5088318;28;20134;-78
2022/04/25 13:12:25;;;;;;;9.15;5.88;;;7.90;99.90;;;;;;5104899;28;20478;-76
2022/04/25 13:14:52;;;;;;;9.13;5.47;;;7.90;99.90;;;;;;5099912;28;20499;-75
2022/04/25 13:17:21;;;;;;;11.13;5.18;;;7.90;99.90;;;;;;5104517;28;20052;-77
2022/04/25 13:19:48;;;;;;;8.50;5.32;;;7.90;99.90;;;;;;5101316;28;20044;-77
2022/04/25 13:22:16;;;;;;;6.80;5.00;;;7.90;99.90;;;;;;5121535;27;20156;-77
2022/04/25 13:24:45;;;;;;;8.32;5.50;;;7.90;99.90;;;;;;5094990;28;20135;-78
2022/04/25 13:27:13;;;;;;;6.97;5.60;;;7.90;99.90;;;;;;5114576;27;20044;-76
2022/04/25 13:29:42;;;;;;;7.57;5.65;;;7.90;99.90;;;;;;5073159;28;20565;-77
2022/04/25 13:32:12;;;;;;;7.47;4.40;;;7.90;99.90;;;;;;5090047;28;20456;-75
2022/04/25 13:34:42;;;;;;;6.60;5.50;;;7.90;99.90;;;;;;5097204;28;20075;-74
2022/04/25 13:37:14;;;;;;;7.38;5.07;;;7.90;99.90;;;;;;5096980;28;20572;-74
2022/04/25 13:39:41;;;;;;;6.15;5.13;;;7.90;99.90;;;;;;5108618;28;20051;-73
2022/04/25 13:42:10;;;;;;;8.48;5.07;;;8.00;99.90;;;;;;5107699;28;20093;-75
2022/04/25 13:44:40;;;;;;;9.10;4.95;;;8.00;99.90;;;;;;5108677;28;20420;-75
2022/04/25 13:47:09;;;;;;;7.35;4.82;;;8.00;99.90;;;;;;5103875;28;20047;-75
2022/04/25 13:49:43;;;;;;;11.15;5.10;;;7.90;99.90;;;;;;5087426;28;20059;-79